sensor_id;sensor_type;location;lat;lon;timestamp;temperature;humidity
28773;DHT22;15925;51.222;5.678;2023-05-07T00:01:57;16.10;99.90
28773;DHT22;15925;51.222;5.678;2023-05-07T00:04:22;16.10;99.90
28773;DHT22;15925;51.222;5.678;2023-05-07T00:06:48;16.10;99.90
28773;DHT22;15925;51.222;5.678;2023-05-07T00:09:14;16.10;99.90
28773;DHT22;15925;51.222;5.678;2023-05-07T00:11:40;16.10;99.90
28773;DHT22;15925;51.222;5.678;2023-05-07T00:14:06;16.00;99.90
28773;DHT22;15925;51.222;5.678;2023-05-07T00:16:31;16.00;99.90
28773;DHT22;15925;51.222;5.678;2023-05-07T00:18:57;15.90;99.90
28773;DHT22;15925;51.222;5.678;2023-05-07T00:21:23;16.00;99.90
28773;DHT22;15925;51.222;5.678;2023-05-07T00:23:52;15.90;99.90
28773;DHT22;15925;51.222;5.678;2023-05-07T00:26:18;15.90;99.90
28773;DHT22;15925;51.222;5.678;2023-05-07T00:28:46;15.90;99.90
28773;DHT22;15925;51.222;5.678;2023-05-07T00:31:12;15.90;99.90
28773;DHT22;15925;51.222;5.678;2023-05-07T00:33:38;15.90;99.90
28773;DHT22;15925;51.222;5.678;2023-05-07T00:36:04;15.90;99.90
28773;DHT22;15925;51.222;5.678;2023-05-07T00:38:30;15.90;99.90
28773;DHT22;15925;51.222;5.678;2023-05-07T00:40:56;15.90;99.90
28773;DHT22;15925;51.222;5.678;2023-05-07T00:43:22;15.80;99.90
28773;DHT22;15925;51.222;5.678;2023-05-07T00:45:48;15.90;99.90
28773;DHT22;15925;51.222;5.678;2023-05-07T00:48:14;15.80;99.90
28773;DHT22;15925;51.222;5.678;2023-05-07T00:50:40;15.80;99.90
28773;DHT22;15925;51.222;5.678;2023-05-07T00:53:06;15.80;99.90
28773;DHT22;15925;51.222;5.678;2023-05-07T00:55:32;15.80;99.90
28773;DHT22;15925;51.222;5.678;2023-05-07T00:57:58;15.80;99.90
28773;DHT22;15925;51.222;5.678;2023-05-07T01:00:24;15.80;99.90
28773;DHT22;15925;51.222;5.678;2023-05-07T01:02:50;15.80;99.90
28773;DHT22;15925;51.222;5.678;2023-05-07T01:05:17;15.80;99.90
28773;DHT22;15925;51.222;5.678;2023-05-07T01:07:44;15.70;99.90
28773;DHT22;15925;51.222;5.678;2023-05-07T01:10:10;15.70;99.90
28773;DHT22;15925;51.222;5.678;2023-05-07T01:12:38;15.70;99.90
28773;DHT22;15925;51.222;5.678;2023-05-07T01:15:05;15.60;99.90
28773;DHT22;15925;51.222;5.678;2023-05-07T01:17:40;15.70;99.90
28773;DHT22;15925;51.222;5.678;2023-05-07T01:20:10;15.60;99.90
28773;DHT22;15925;51.222;5.678;2023-05-07T01:22:38;15.70;99.90
28773;DHT22;15925;51.222;5.678;2023-05-07T01:25:05;15.60;99.90
28773;DHT22;15925;51.222;5.678;2023-05-07T01:27:32;15.70;99.90
28773;DHT22;15925;51.222;5.678;2023-05-07T01:29:59;15.60;99.90
28773;DHT22;15925;51.222;5.678;2023-05-07T01:32:42;15.60;99.90
28773;DHT22;15925;51.222;5.678;2023-05-07T01:35:11;15.60;99.90
28773;DHT22;15925;51.222;5.678;2023-05-07T01:37:39;15.60;99.90
28773;DHT22;15925;51.222;5.678;2023-05-07T01:40:06;15.70;99.90
28773;DHT22;15925;51.222;5.678;2023-05-07T01:42:33;15.70;99.90
28773;DHT22;15925;51.222;5.678;2023-05-07T01:44:59;15.70;99.90
28773;DHT22;15925;51.222;5.678;2023-05-07T01:47:25;15.60;99.90
28773;DHT22;15925;51.222;5.678;2023-05-07T01:49:51;15.60;99.90
28773;DHT22;15925;51.222;5.678;2023-05-07T01:52:18;15.60;99.90
28773;DHT22;15925;51.222;5.678;2023-05-07T01:54:43;15.60;99.90
28773;DHT22;15925;51.222;5.678;2023-05-07T01:57:10;15.60;99.90
28773;DHT22;15925;51.222;5.678;2023-05-07T01:59:36;15.60;99.90
28773;DHT22;15925;51.222;5.678;2023-05-07T02:02:02;15.50;99.90
28773;DHT22;15925;51.222;5.678;2023-05-07T02:04:29;15.60;99.90
28773;DHT22;15925;51.222;5.678;2023-05-07T02:06:55;15.50;99.90
28773;DHT22;15925;51.222;5.678;2023-05-07T02:09:21;15.60;99.90
28773;DHT22;15925;51.222;5.678;2023-05-07T02:11:49;15.50;99.90
28773;DHT22;15925;51.222;5.678;2023-05-07T02:14:16;15.50;99.90
28773;DHT22;15925;51.222;5.678;2023-05-07T02:16:41;15.50;99.90
28773;DHT22;15925;51.222;5.678;2023-05-07T02:19:09;15.50;99.90
28773;DHT22;15925;51.222;5.678;2023-05-07T02:21:35;15.50;99.90
28773;DHT22;15925;51.222;5.678;2023-05-07T02:24:01;15.50;99.90
28773;DHT22;15925;51.222;5.678;2023-05-07T02:26:27;15.50;99.90
28773;DHT22;15925;51.222;5.678;2023-05-07T02:28:53;15.50;99.90
28773;DHT22;15925;51.222;5.678;2023-05-07T02:31:20;15.40;99.90
28773;DHT22;15925;51.222;5.678;2023-05-07T02:33:45;15.50;99.90
28773;DHT22;15925;51.222;5.678;2023-05-07T02:36:12;15.50;99.90
28773;DHT22;15925;51.222;5.678;2023-05-07T02:38:45;15.50;99.90
28773;DHT22;15925;51.222;5.678;2023-05-07T02:41:10;15.50;99.90
28773;DHT22;15925;51.222;5.678;2023-05-07T02:43:36;15.40;99.90
28773;DHT22;15925;51.222;5.678;2023-05-07T02:46:07;15.50;99.90
28773;DHT22;15925;51.222;5.678;2023-05-07T02:48:36;15.40;99.90
28773;DHT22;15925;51.222;5.678;2023-05-07T02:51:02;15.40;99.90
28773;DHT22;15925;51.222;5.678;2023-05-07T02:53:28;15.40;99.90
28773;DHT22;15925;51.222;5.678;2023-05-07T02:55:59;15.40;99.90
28773;DHT22;15925;51.222;5.678;2023-05-07T02:58:26;15.40;99.90
28773;DHT22;15925;51.222;5.678;2023-05-07T03:00:53;15.40;99.90
28773;DHT22;15925;51.222;5.678;2023-05-07T03:03:28;15.40;99.90
28773;DHT22;15925;51.222;5.678;2023-05-07T03:05:54;15.50;99.90
28773;DHT22;15925;51.222;5.678;2023-05-07T03:08:20;15.50;99.90
28773;DHT22;15925;51.222;5.678;2023-05-07T03:10:46;15.30;99.90
28773;DHT22;15925;51.222;5.678;2023-05-07T03:13:12;15.30;99.90
28773;DHT22;15925;51.222;5.678;2023-05-07T03:15:38;15.30;99.90
28773;DHT22;15925;51.222;5.678;2023-05-07T03:18:03;15.30;99.90
28773;DHT22;15925;51.222;5.678;2023-05-07T03:20:29;15.30;99.90
28773;DHT22;15925;51.222;5.678;2023-05-07T03:22:56;15.40;99.90
28773;DHT22;15925;51.222;5.678;2023-05-07T03:25:21;15.30;99.90
28773;DHT22;15925;51.222;5.678;2023-05-07T03:27:47;15.40;99.90
28773;DHT22;15925;51.222;5.678;2023-05-07T03:30:14;15.30;99.90
28773;DHT22;15925;51.222;5.678;2023-05-07T03:32:40;15.30;99.90
28773;DHT22;15925;51.222;5.678;2023-05-07T03:35:09;15.30;99.90
28773;DHT22;15925;51.222;5.678;2023-05-07T03:37:35;15.30;99.90
28773;DHT22;15925;51.222;5.678;2023-05-07T03:40:01;15.30;99.90
28773;DHT22;15925;51.222;5.678;2023-05-07T03:42:31;15.30;99.90
28773;DHT22;15925;51.222;5.678;2023-05-07T03:44:57;15.30;99.90
28773;DHT22;15925;51.222;5.678;2023-05-07T03:47:23;15.30;99.90
28773;DHT22;15925;51.222;5.678;2023-05-07T03:49:49;15.30;99.90
28773;DHT22;15925;51.222;5.678;2023-05-07T03:52:18;15.30;99.90
28773;DHT22;15925;51.222;5.678;2023-05-07T03:54:49;15.30;99.90
28773;DHT22;15925;51.222;5.678;2023-05-07T03:57:16;15.20;99.90
28773;DHT22;15925;51.222;5.678;2023-05-07T03:59:42;15.20;99.90
28773;DHT22;15925;51.222;5.678;2023-05-07T04:02:08;15.20;99.90
28773;DHT22;15925;51.222;5.678;2023-05-07T04:04:34;15.20;99.90
28773;DHT22;15925;51.222;5.678;2023-05-07T04:07:00;15.20;99.90
28773;DHT22;15925;51.222;5.678;2023-05-07T04:09:27;15.20;99.90
28773;DHT22;15925;51.222;5.678;2023-05-07T04:11:55;15.20;99.90
28773;DHT22;15925;51.222;5.678;2023-05-07T04:14:21;15.20;99.90
28773;DHT22;15925;51.222;5.678;2023-05-07T04:16:47;15.20;99.90
28773;DHT22;15925;51.222;5.678;2023-05-07T04:19:14;15.10;99.90
28773;DHT22;15925;51.222;5.678;2023-05-07T04:21:40;15.20;99.90
28773;DHT22;15925;51.222;5.678;2023-05-07T04:24:06;15.20;99.90
28773;DHT22;15925;51.222;5.678;2023-05-07T04:26:32;15.20;99.90
28773;DHT22;15925;51.222;5.678;2023-05-07T04:28:58;15.20;99.90
28773;DHT22;15925;51.222;5.678;2023-05-07T04:31:30;15.10;99.90
28773;DHT22;15925;51.222;5.678;2023-05-07T04:33:56;15.20;99.90
28773;DHT22;15925;51.222;5.678;2023-05-07T04:36:22;15.10;99.90
28773;DHT22;15925;51.222;5.678;2023-05-07T04:38:57;15.00;99.90
28773;DHT22;15925;51.222;5.678;2023-05-07T04:41:23;15.10;99.90
28773;DHT22;15925;51.222;5.678;2023-05-07T04:43:49;15.10;99.90
28773;DHT22;15925;51.222;5.678;2023-05-07T04:46:16;15.20;99.90
28773;DHT22;15925;51.222;5.678;2023-05-07T04:48:43;15.20;99.90
28773;DHT22;15925;51.222;5.678;2023-05-07T04:51:10;15.10;99.90
28773;DHT22;15925;51.222;5.678;2023-05-07T04:53:37;15.10;99.90
28773;DHT22;15925;51.222;5.678;2023-05-07T04:56:03;15.10;99.90
28773;DHT22;15925;51.222;5.678;2023-05-07T04:58:36;14.90;99.90
28773;DHT22;15925;51.222;5.678;2023-05-07T05:01:02;14.90;99.90
28773;DHT22;15925;51.222;5.678;2023-05-07T05:03:29;15.00;99.90
28773;DHT22;15925;51.222;5.678;2023-05-07T05:05:56;15.00;99.90
28773;DHT22;15925;51.222;5.678;2023-05-07T05:08:26;15.10;99.90
28773;DHT22;15925;51.222;5.678;2023-05-07T05:10:52;15.20;99.90
28773;DHT22;15925;51.222;5.678;2023-05-07T05:13:18;15.20;99.90
28773;DHT22;15925;51.222;5.678;2023-05-07T05:15:44;15.30;99.90
28773;DHT22;15925;51.222;5.678;2023-05-07T05:18:11;15.20;99.90
28773;DHT22;15925;51.222;5.678;2023-05-07T05:20:39;15.30;99.90
28773;DHT22;15925;51.222;5.678;2023-05-07T05:23:04;15.30;99.90
28773;DHT22;15925;51.222;5.678;2023-05-07T05:25:32;15.30;99.90
28773;DHT22;15925;51.222;5.678;2023-05-07T05:27:58;15.40;99.90
28773;DHT22;15925;51.222;5.678;2023-05-07T05:30:24;15.40;99.90
28773;DHT22;15925;51.222;5.678;2023-05-07T05:32:51;15.40;99.90
28773;DHT22;15925;51.222;5.678;2023-05-07T05:35:17;15.40;99.90
28773;DHT22;15925;51.222;5.678;2023-05-07T05:37:43;15.50;99.90
28773;DHT22;15925;51.222;5.678;2023-05-07T05:40:09;15.50;99.90
28773;DHT22;15925;51.222;5.678;2023-05-07T05:42:35;15.50;99.90
28773;DHT22;15925;51.222;5.678;2023-05-07T05:45:02;15.50;99.90
28773;DHT22;15925;51.222;5.678;2023-05-07T05:47:33;15.60;99.90
28773;DHT22;15925;51.222;5.678;2023-05-07T05:49:59;15.50;99.90
28773;DHT22;15925;51.222;5.678;2023-05-07T05:52:25;15.60;99.90
28773;DHT22;15925;51.222;5.678;2023-05-07T05:54:51;15.60;99.90
28773;DHT22;15925;51.222;5.678;2023-05-07T05:57:18;15.70;99.90
28773;DHT22;15925;51.222;5.678;2023-05-07T05:59:45;15.70;99.90
28773;DHT22;15925;51.222;5.678;2023-05-07T06:02:12;15.70;99.90
28773;DHT22;15925;51.222;5.678;2023-05-07T06:04:38;15.70;99.90
28773;DHT22;15925;51.222;5.678;2023-05-07T06:07:04;15.80;99.90
28773;DHT22;15925;51.222;5.678;2023-05-07T06:09:30;15.80;99.90
28773;DHT22;15925;51.222;5.678;2023-05-07T06:11:56;15.80;99.90
28773;DHT22;15925;51.222;5.678;2023-05-07T06:14:22;15.80;99.90
28773;DHT22;15925;51.222;5.678;2023-05-07T06:16:48;15.90;99.90
28773;DHT22;15925;51.222;5.678;2023-05-07T06:19:14;15.90;99.90
28773;DHT22;15925;51.222;5.678;2023-05-07T06:21:41;15.90;99.90
28773;DHT22;15925;51.222;5.678;2023-05-07T06:24:07;15.90;99.90
28773;DHT22;15925;51.222;5.678;2023-05-07T06:26:34;15.90;99.90
28773;DHT22;15925;51.222;5.678;2023-05-07T06:28:59;15.90;99.90
28773;DHT22;15925;51.222;5.678;2023-05-07T06:31:29;16.00;99.90
28773;DHT22;15925;51.222;5.678;2023-05-07T06:34:01;15.90;99.90
28773;DHT22;15925;51.222;5.678;2023-05-07T06:36:33;16.00;99.90
28773;DHT22;15925;51.222;5.678;2023-05-07T06:39:03;16.00;99.90
28773;DHT22;15925;51.222;5.678;2023-05-07T06:41:28;16.10;99.90
28773;DHT22;15925;51.222;5.678;2023-05-07T06:43:58;16.10;99.90
28773;DHT22;15925;51.222;5.678;2023-05-07T06:46:32;16.10;99.90
28773;DHT22;15925;51.222;5.678;2023-05-07T06:48:57;16.10;99.90
28773;DHT22;15925;51.222;5.678;2023-05-07T06:51:25;16.20;99.90
28773;DHT22;15925;51.222;5.678;2023-05-07T06:53:51;16.20;99.90
28773;DHT22;15925;51.222;5.678;2023-05-07T06:56:17;16.30;99.90
28773;DHT22;15925;51.222;5.678;2023-05-07T06:58:43;16.30;99.90
28773;DHT22;15925;51.222;5.678;2023-05-07T07:01:09;16.30;99.90
28773;DHT22;15925;51.222;5.678;2023-05-07T07:03:36;16.40;99.90
28773;DHT22;15925;51.222;5.678;2023-05-07T07:06:02;16.40;99.90
28773;DHT22;15925;51.222;5.678;2023-05-07T07:08:29;16.50;99.90
28773;DHT22;15925;51.222;5.678;2023-05-07T07:10:55;16.50;99.90
28773;DHT22;15925;51.222;5.678;2023-05-07T07:13:21;16.60;99.90
28773;DHT22;15925;51.222;5.678;2023-05-07T07:15:47;16.60;99.90
28773;DHT22;15925;51.222;5.678;2023-05-07T07:18:13;16.60;99.90
28773;DHT22;15925;51.222;5.678;2023-05-07T07:20:39;16.70;99.90
28773;DHT22;15925;51.222;5.678;2023-05-07T07:23:07;16.70;99.90
28773;DHT22;15925;51.222;5.678;2023-05-07T07:25:32;16.70;99.90
28773;DHT22;15925;51.222;5.678;2023-05-07T07:27:59;16.80;99.90
28773;DHT22;15925;51.222;5.678;2023-05-07T07:30:26;16.80;99.90
28773;DHT22;15925;51.222;5.678;2023-05-07T07:32:52;16.90;99.90
28773;DHT22;15925;51.222;5.678;2023-05-07T07:35:19;16.90;99.90
28773;DHT22;15925;51.222;5.678;2023-05-07T07:37:48;17.00;99.90
28773;DHT22;15925;51.222;5.678;2023-05-07T07:40:15;17.00;99.90
28773;DHT22;15925;51.222;5.678;2023-05-07T07:42:42;17.00;99.90
28773;DHT22;15925;51.222;5.678;2023-05-07T07:45:08;17.00;99.90
28773;DHT22;15925;51.222;5.678;2023-05-07T07:47:41;17.10;99.90
28773;DHT22;15925;51.222;5.678;2023-05-07T07:50:08;17.10;99.90
28773;DHT22;15925;51.222;5.678;2023-05-07T07:52:34;17.20;99.90
28773;DHT22;15925;51.222;5.678;2023-05-07T07:55:00;17.20;99.90
28773;DHT22;15925;51.222;5.678;2023-05-07T07:57:27;17.30;99.90
28773;DHT22;15925;51.222;5.678;2023-05-07T07:59:54;17.30;99.90
28773;DHT22;15925;51.222;5.678;2023-05-07T08:02:20;17.30;99.90
28773;DHT22;15925;51.222;5.678;2023-05-07T08:04:47;17.40;99.90
28773;DHT22;15925;51.222;5.678;2023-05-07T08:07:13;17.40;99.90
28773;DHT22;15925;51.222;5.678;2023-05-07T08:09:41;17.40;99.90
28773;DHT22;15925;51.222;5.678;2023-05-07T08:12:08;17.40;99.90
28773;DHT22;15925;51.222;5.678;2023-05-07T08:14:35;17.50;99.90
28773;DHT22;15925;51.222;5.678;2023-05-07T08:17:03;17.50;99.90
28773;DHT22;15925;51.222;5.678;2023-05-07T08:19:30;17.60;99.90
28773;DHT22;15925;51.222;5.678;2023-05-07T08:21:56;17.60;99.90
28773;DHT22;15925;51.222;5.678;2023-05-07T08:24:23;17.70;99.90
28773;DHT22;15925;51.222;5.678;2023-05-07T08:26:49;17.70;99.90
28773;DHT22;15925;51.222;5.678;2023-05-07T08:29:15;17.70;99.90
28773;DHT22;15925;51.222;5.678;2023-05-07T08:31:42;17.80;99.90
28773;DHT22;15925;51.222;5.678;2023-05-07T08:34:08;17.80;99.90
28773;DHT22;15925;51.222;5.678;2023-05-07T08:36:36;17.90;99.90
28773;DHT22;15925;51.222;5.678;2023-05-07T08:39:03;17.90;99.90
28773;DHT22;15925;51.222;5.678;2023-05-07T08:41:29;18.00;99.90
28773;DHT22;15925;51.222;5.678;2023-05-07T08:43:58;18.10;99.90
28773;DHT22;15925;51.222;5.678;2023-05-07T08:46:28;18.20;99.90
28773;DHT22;15925;51.222;5.678;2023-05-07T08:48:56;18.30;99.90
28773;DHT22;15925;51.222;5.678;2023-05-07T08:51:22;18.40;99.90
28773;DHT22;15925;51.222;5.678;2023-05-07T08:53:49;18.50;99.90
28773;DHT22;15925;51.222;5.678;2023-05-07T08:56:20;18.60;99.90
28773;DHT22;15925;51.222;5.678;2023-05-07T08:58:48;18.70;99.90
28773;DHT22;15925;51.222;5.678;2023-05-07T09:01:15;18.80;99.90
28773;DHT22;15925;51.222;5.678;2023-05-07T09:03:45;18.90;99.90
28773;DHT22;15925;51.222;5.678;2023-05-07T09:06:11;18.90;99.90
28773;DHT22;15925;51.222;5.678;2023-05-07T09:08:37;19.00;99.90
28773;DHT22;15925;51.222;5.678;2023-05-07T09:11:04;19.10;99.90
28773;DHT22;15925;51.222;5.678;2023-05-07T09:13:30;19.10;99.90
28773;DHT22;15925;51.222;5.678;2023-05-07T09:16:10;19.20;99.90
28773;DHT22;15925;51.222;5.678;2023-05-07T09:18:43;19.20;99.90
28773;DHT22;15925;51.222;5.678;2023-05-07T09:21:14;19.30;99.90
28773;DHT22;15925;51.222;5.678;2023-05-07T09:23:41;19.30;99.90
28773;DHT22;15925;51.222;5.678;2023-05-07T09:26:08;19.40;99.90
28773;DHT22;15925;51.222;5.678;2023-05-07T09:28:41;19.50;99.90
28773;DHT22;15925;51.222;5.678;2023-05-07T09:31:10;19.50;99.90
28773;DHT22;15925;51.222;5.678;2023-05-07T09:33:36;19.50;99.90
28773;DHT22;15925;51.222;5.678;2023-05-07T09:36:05;19.60;99.90
28773;DHT22;15925;51.222;5.678;2023-05-07T09:38:33;19.60;99.90
28773;DHT22;15925;51.222;5.678;2023-05-07T09:41:06;19.70;99.90
28773;DHT22;15925;51.222;5.678;2023-05-07T09:43:38;19.70;99.90
28773;DHT22;15925;51.222;5.678;2023-05-07T09:46:12;19.80;99.90
28773;DHT22;15925;51.222;5.678;2023-05-07T09:48:41;19.80;99.90
28773;DHT22;15925;51.222;5.678;2023-05-07T09:51:15;19.80;99.90
28773;DHT22;15925;51.222;5.678;2023-05-07T09:53:45;19.80;99.90
28773;DHT22;15925;51.222;5.678;2023-05-07T09:56:14;20.00;99.90
28773;DHT22;15925;51.222;5.678;2023-05-07T09:58:41;20.00;99.90
28773;DHT22;15925;51.222;5.678;2023-05-07T10:01:07;20.10;99.90
28773;DHT22;15925;51.222;5.678;2023-05-07T10:03:35;20.10;99.90
28773;DHT22;15925;51.222;5.678;2023-05-07T10:06:04;20.10;99.90
28773;DHT22;15925;51.222;5.678;2023-05-07T10:08:31;20.20;99.90
28773;DHT22;15925;51.222;5.678;2023-05-07T10:10:59;20.30;99.90
28773;DHT22;15925;51.222;5.678;2023-05-07T10:13:27;20.30;99.90
28773;DHT22;15925;51.222;5.678;2023-05-07T10:15:57;20.40;99.90
28773;DHT22;15925;51.222;5.678;2023-05-07T10:18:26;20.50;99.90
28773;DHT22;15925;51.222;5.678;2023-05-07T10:21:19;20.60;99.90
28773;DHT22;15925;51.222;5.678;2023-05-07T10:23:50;20.80;99.90
28773;DHT22;15925;51.222;5.678;2023-05-07T10:26:18;20.80;99.90
28773;DHT22;15925;51.222;5.678;2023-05-07T10:28:49;20.90;99.90
28773;DHT22;15925;51.222;5.678;2023-05-07T10:34:18;21.00;99.90
28773;DHT22;15925;51.222;5.678;2023-05-07T10:36:47;21.00;99.90
28773;DHT22;15925;51.222;5.678;2023-05-07T10:39:14;21.00;99.90
28773;DHT22;15925;51.222;5.678;2023-05-07T10:41:40;21.10;99.90
28773;DHT22;15925;51.222;5.678;2023-05-07T10:44:07;21.20;99.90
28773;DHT22;15925;51.222;5.678;2023-05-07T10:46:35;21.20;99.90
28773;DHT22;15925;51.222;5.678;2023-05-07T10:49:12;21.30;99.90
28773;DHT22;15925;51.222;5.678;2023-05-07T10:54:46;21.50;99.90
28773;DHT22;15925;51.222;5.678;2023-05-07T11:05:31;21.70;99.90
28773;DHT22;15925;51.222;5.678;2023-05-07T11:08:20;21.90;99.90
28773;DHT22;15925;51.222;5.678;2023-05-07T11:11:03;21.80;99.90
28773;DHT22;15925;51.222;5.678;2023-05-07T11:13:48;21.80;99.90
28773;DHT22;15925;51.222;5.678;2023-05-07T11:16:47;21.90;99.90
28773;DHT22;15925;51.222;5.678;2023-05-07T11:19:48;22.00;99.90
28773;DHT22;15925;51.222;5.678;2023-05-07T11:25:10;22.20;99.90
28773;DHT22;15925;51.222;5.678;2023-05-07T11:27:42;22.30;99.90
28773;DHT22;15925;51.222;5.678;2023-05-07T11:30:09;22.30;99.90
28773;DHT22;15925;51.222;5.678;2023-05-07T11:32:35;22.30;99.90
28773;DHT22;15925;51.222;5.678;2023-05-07T11:35:01;22.30;99.90
28773;DHT22;15925;51.222;5.678;2023-05-07T11:37:28;22.30;99.90
28773;DHT22;15925;51.222;5.678;2023-05-07T11:40:06;22.30;99.90
28773;DHT22;15925;51.222;5.678;2023-05-07T11:42:37;22.30;99.90
28773;DHT22;15925;51.222;5.678;2023-05-07T11:45:05;22.30;99.90
28773;DHT22;15925;51.222;5.678;2023-05-07T11:47:34;22.30;99.90
28773;DHT22;15925;51.222;5.678;2023-05-07T11:50:07;22.30;99.90
28773;DHT22;15925;51.222;5.678;2023-05-07T11:52:34;22.20;99.90
28773;DHT22;15925;51.222;5.678;2023-05-07T11:55:01;22.30;99.90
28773;DHT22;15925;51.222;5.678;2023-05-07T11:57:29;22.30;99.90
28773;DHT22;15925;51.222;5.678;2023-05-07T11:59:58;22.20;99.90
28773;DHT22;15925;51.222;5.678;2023-05-07T12:02:25;22.20;99.90
28773;DHT22;15925;51.222;5.678;2023-05-07T12:04:51;22.30;99.90
28773;DHT22;15925;51.222;5.678;2023-05-07T12:07:18;22.20;99.90
28773;DHT22;15925;51.222;5.678;2023-05-07T12:09:44;22.20;99.90
28773;DHT22;15925;51.222;5.678;2023-05-07T12:12:10;22.20;99.90
28773;DHT22;15925;51.222;5.678;2023-05-07T12:14:43;22.10;99.90
28773;DHT22;15925;51.222;5.678;2023-05-07T12:17:11;22.00;99.90
28773;DHT22;15925;51.222;5.678;2023-05-07T12:19:40;22.00;99.90
28773;DHT22;15925;51.222;5.678;2023-05-07T12:22:08;21.80;99.90
28773;DHT22;15925;51.222;5.678;2023-05-07T12:27:09;21.40;99.90
28773;DHT22;15925;51.222;5.678;2023-05-07T12:29:35;21.20;99.90
28773;DHT22;15925;51.222;5.678;2023-05-07T12:32:01;21.20;99.90
28773;DHT22;15925;51.222;5.678;2023-05-07T12:34:27;21.10;99.90
28773;DHT22;15925;51.222;5.678;2023-05-07T12:36:53;21.00;99.90
28773;DHT22;15925;51.222;5.678;2023-05-07T12:39:19;20.90;99.90
28773;DHT22;15925;51.222;5.678;2023-05-07T12:41:58;20.90;99.90
28773;DHT22;15925;51.222;5.678;2023-05-07T12:44:28;20.60;99.90
28773;DHT22;15925;51.222;5.678;2023-05-07T12:46:54;20.60;99.90
28773;DHT22;15925;51.222;5.678;2023-05-07T12:49:20;20.50;99.90
28773;DHT22;15925;51.222;5.678;2023-05-07T12:51:49;20.10;99.90
28773;DHT22;15925;51.222;5.678;2023-05-07T12:54:37;19.80;99.90
28773;DHT22;15925;51.222;5.678;2023-05-07T12:57:04;19.60;99.90
28773;DHT22;15925;51.222;5.678;2023-05-07T12:59:41;19.20;99.90
28773;DHT22;15925;51.222;5.678;2023-05-07T13:02:07;18.90;99.90
28773;DHT22;15925;51.222;5.678;2023-05-07T13:04:35;18.70;99.90
28773;DHT22;15925;51.222;5.678;2023-05-07T13:07:01;18.70;99.90
28773;DHT22;15925;51.222;5.678;2023-05-07T13:09:28;18.50;99.90
28773;DHT22;15925;51.222;5.678;2023-05-07T13:11:55;18.50;99.90
28773;DHT22;15925;51.222;5.678;2023-05-07T13:14:20;18.40;99.90
28773;DHT22;15925;51.222;5.678;2023-05-07T13:16:47;18.40;99.90
28773;DHT22;15925;51.222;5.678;2023-05-07T13:19:13;18.20;99.90
28773;DHT22;15925;51.222;5.678;2023-05-07T13:21:39;18.00;99.90
28773;DHT22;15925;51.222;5.678;2023-05-07T13:24:05;18.20;99.90
28773;DHT22;15925;51.222;5.678;2023-05-07T13:26:31;18.40;99.90
28773;DHT22;15925;51.222;5.678;2023-05-07T13:28:57;18.50;99.90
28773;DHT22;15925;51.222;5.678;2023-05-07T13:31:23;18.60;99.90
28773;DHT22;15925;51.222;5.678;2023-05-07T13:33:49;18.50;99.90
28773;DHT22;15925;51.222;5.678;2023-05-07T13:36:15;18.50;99.90
28773;DHT22;15925;51.222;5.678;2023-05-07T13:38:41;18.50;99.90
28773;DHT22;15925;51.222;5.678;2023-05-07T13:41:07;18.50;99.90
28773;DHT22;15925;51.222;5.678;2023-05-07T13:43:33;18.60;99.90
28773;DHT22;15925;51.222;5.678;2023-05-07T13:46:01;18.60;99.90
28773;DHT22;15925;51.222;5.678;2023-05-07T13:48:29;18.60;99.90
28773;DHT22;15925;51.222;5.678;2023-05-07T13:50:55;18.60;99.90
28773;DHT22;15925;51.222;5.678;2023-05-07T13:53:21;18.60;99.90
28773;DHT22;15925;51.222;5.678;2023-05-07T13:55:46;18.60;99.90
28773;DHT22;15925;51.222;5.678;2023-05-07T13:58:13;18.80;99.90
28773;DHT22;15925;51.222;5.678;2023-05-07T14:00:40;18.80;99.90
28773;DHT22;15925;51.222;5.678;2023-05-07T14:03:06;18.90;99.90
28773;DHT22;15925;51.222;5.678;2023-05-07T14:05:31;19.00;99.90
28773;DHT22;15925;51.222;5.678;2023-05-07T14:07:58;19.00;99.90
28773;DHT22;15925;51.222;5.678;2023-05-07T14:10:24;19.10;99.90
28773;DHT22;15925;51.222;5.678;2023-05-07T14:12:50;19.10;99.90
28773;DHT22;15925;51.222;5.678;2023-05-07T14:15:17;19.20;99.90
28773;DHT22;15925;51.222;5.678;2023-05-07T14:17:44;19.30;99.90
28773;DHT22;15925;51.222;5.678;2023-05-07T14:20:11;19.40;99.90
28773;DHT22;15925;51.222;5.678;2023-05-07T14:22:37;19.40;99.90
28773;DHT22;15925;51.222;5.678;2023-05-07T14:25:04;19.40;99.90
28773;DHT22;15925;51.222;5.678;2023-05-07T14:27:29;19.50;99.90
28773;DHT22;15925;51.222;5.678;2023-05-07T14:29:55;19.50;99.90
28773;DHT22;15925;51.222;5.678;2023-05-07T14:32:22;19.50;99.90
28773;DHT22;15925;51.222;5.678;2023-05-07T14:34:47;19.60;99.90
28773;DHT22;15925;51.222;5.678;2023-05-07T14:37:13;19.70;99.90
28773;DHT22;15925;51.222;5.678;2023-05-07T14:39:39;19.80;99.90
28773;DHT22;15925;51.222;5.678;2023-05-07T14:42:05;19.80;99.90
28773;DHT22;15925;51.222;5.678;2023-05-07T14:44:34;19.80;99.90
28773;DHT22;15925;51.222;5.678;2023-05-07T14:47:00;19.90;99.90
28773;DHT22;15925;51.222;5.678;2023-05-07T14:49:26;19.90;99.90
28773;DHT22;15925;51.222;5.678;2023-05-07T14:51:51;19.90;99.90
28773;DHT22;15925;51.222;5.678;2023-05-07T14:54:17;19.90;99.90
28773;DHT22;15925;51.222;5.678;2023-05-07T14:56:43;19.80;99.90
28773;DHT22;15925;51.222;5.678;2023-05-07T14:59:09;19.80;99.90
28773;DHT22;15925;51.222;5.678;2023-05-07T15:01:36;19.90;99.90
28773;DHT22;15925;51.222;5.678;2023-05-07T15:04:04;20.00;99.90
28773;DHT22;15925;51.222;5.678;2023-05-07T15:06:31;20.00;99.90
28773;DHT22;15925;51.222;5.678;2023-05-07T15:08:57;19.90;99.90
28773;DHT22;15925;51.222;5.678;2023-05-07T15:11:23;20.00;99.90
28773;DHT22;15925;51.222;5.678;2023-05-07T15:13:49;20.00;99.90
28773;DHT22;15925;51.222;5.678;2023-05-07T15:16:15;20.00;99.90
28773;DHT22;15925;51.222;5.678;2023-05-07T15:18:42;20.00;99.90
28773;DHT22;15925;51.222;5.678;2023-05-07T15:21:08;19.90;99.90
28773;DHT22;15925;51.222;5.678;2023-05-07T15:23:34;19.90;99.90
28773;DHT22;15925;51.222;5.678;2023-05-07T15:26:00;19.90;99.90
28773;DHT22;15925;51.222;5.678;2023-05-07T15:28:27;19.80;99.90
28773;DHT22;15925;51.222;5.678;2023-05-07T15:30:55;19.70;99.90
28773;DHT22;15925;51.222;5.678;2023-05-07T15:33:21;19.70;99.90
28773;DHT22;15925;51.222;5.678;2023-05-07T15:35:47;19.80;99.90
28773;DHT22;15925;51.222;5.678;2023-05-07T15:38:13;19.80;99.90
28773;DHT22;15925;51.222;5.678;2023-05-07T15:40:39;19.70;99.90
28773;DHT22;15925;51.222;5.678;2023-05-07T15:43:09;19.80;99.90
28773;DHT22;15925;51.222;5.678;2023-05-07T15:45:39;19.80;99.90
28773;DHT22;15925;51.222;5.678;2023-05-07T15:48:06;19.70;99.90
28773;DHT22;15925;51.222;5.678;2023-05-07T15:50:32;19.80;99.90
28773;DHT22;15925;51.222;5.678;2023-05-07T15:52:58;19.70;99.90